Time;durP1;ratioP1;P1;durP2;ratioP2;P2;SDS_P1;SDS_P2;PMS_P1;PMS_P2;Temp;Humidity;BMP_temperature;BMP_pressure;BME280_temperature;BME280_humidity;BME280_pressure;Samples;Min_cycle;Max_cycle;Signal;HPM_P1;HPM_P2
2021/08/04 00:00:56;;;;;;;3.23;1.80;;;;;;;12.65;87.51;95470.28;5081786;28;20234;-79
2021/08/04 00:03:21;;;;;;;1.53;1.43;;;;;;;12.77;86.58;95462.94;5100318;28;20192;-78
2021/08/04 00:05:47;;;;;;;2.53;1.90;;;;;;;12.85;86.62;95460.34;5082555;28;20290;-79
2021/08/04 00:08:12;;;;;;;1.70;1.50;;;;;;;12.83;86.55;95461.50;5081838;28;20259;-79
2021/08/04 00:10:37;;;;;;;2.17;1.70;;;;;;;12.71;nan;95451.38;5081311;28;20177;-79
2021/08/04 00:13:03;;;;;;;2.20;1.40;;;;;;;12.74;86.54;95447.66;5099364;28;20176;-79
2021/08/04 00:15:28;;;;;;;2.00;1.80;;;;;;;12.79;86.64;95441.94;5081934;28;20210;-78
2021/08/04 00:17:53;;;;;;;2.13;1.93;;;;;;;12.78;86.67;95438.50;5081428;28;20199;-79
2021/08/04 00:20:18;;;;;;;2.30;2.10;;;;;;;12.80;86.60;95438.34;5099097;28;20180;-79
2021/08/04 00:22:44;;;;;;;2.00;1.80;;;;;;;12.80;86.56;95440.94;5081134;28;20180;-78
2021/08/04 00:25:10;;;;;;;3.17;1.90;;;;;;;12.73;86.93;95441.63;5099556;28;20246;-79
2021/08/04 00:27:35;;;;;;;1.83;1.70;;;;;;;12.72;86.97;95449.56;5081736;28;20204;-79
2021/08/04 00:30:01;;;;;;;4.17;1.63;;;;;;;12.69;86.48;95455.94;5082332;28;20176;-79
2021/08/04 00:32:26;;;;;;;4.47;2.67;;;;;;;12.76;86.19;95458.72;5082605;28;20176;-78
2021/08/04 00:34:52;;;;;;;1.70;1.60;;;;;;;12.74;86.55;95450.25;5100247;28;20192;-79
2021/08/04 00:37:17;;;;;;;1.70;1.60;;;;;;;12.72;86.35;95454.78;5082273;28;20636;-79
2021/08/04 00:39:43;;;;;;;2.93;1.93;;;;;;;12.69;86.50;95457.72;5100311;28;20536;-79
2021/08/04 00:42:08;;;;;;;4.63;1.90;;;;;;;12.66;86.56;95458.06;5080421;28;20176;-78
2021/08/04 00:44:33;;;;;;;3.97;1.97;;;;;;;12.62;86.15;95448.94;5080150;28;20173;-79
2021/08/04 00:46:59;;;;;;;2.80;2.07;;;;;;;12.60;86.28;95450.88;5080081;28;20193;-78
2021/08/04 00:49:24;;;;;;;1.97;1.70;;;;;;;12.61;86.00;95448.13;5045432;28;20735;-79
2021/08/04 00:51:49;;;;;;;1.87;1.70;;;;;;;12.63;85.99;95443.59;5080132;28;20237;-79
2021/08/04 00:54:15;;;;;;;3.47;1.40;;;;;;;12.68;85.96;95443.88;5045106;28;20205;-79
2021/08/04 00:56:40;;;;;;;2.87;1.80;;;;;;;12.64;86.32;95442.59;5061163;28;20201;-78
2021/08/04 00:59:07;;;;;;;2.03;1.70;;;;;;;12.69;86.04;95445.50;5061320;28;20181;-79
2021/08/04 01:01:47;;;;;;;2.73;1.50;;;;;;;12.66;86.28;95445.84;5044504;28;20184;-79
2021/08/04 01:04:23;;;;;;;2.93;1.80;;;;;;;12.60;86.64;95441.28;5060974;28;20181;-79
2021/08/04 01:06:52;;;;;;;3.27;1.93;;;;;;;12.61;86.79;95442.91;5060466;28;20303;-79
2021/08/04 01:09:19;;;;;;;3.43;1.80;;;;;;;12.62;85.96;95439.31;5078550;28;20178;-79
2021/08/04 01:11:54;;;;;;;2.13;1.90;;;;;;;12.64;85.76;95433.97;5043244;28;20188;-79
2021/08/04 01:14:22;;;;;;;1.83;1.73;;;;;;;12.60;85.66;95430.03;5060350;28;20177;-79
2021/08/04 01:16:48;;;;;;;2.77;1.80;;;;;;;12.60;85.54;95430.03;5077970;28;20220;-79
2021/08/04 01:19:39;;;;;;;1.80;1.70;;;;;;;12.63;85.79;95430.56;5060281;28;20178;-78
2021/08/04 01:22:07;;;;;;;1.90;1.67;;;;;;;12.64;85.43;95431.38;5063810;28;20264;-79
2021/08/04 01:24:36;;;;;;;2.60;1.93;;;;;;;12.64;85.33;95426.97;5081936;28;20170;-79
2021/08/04 01:27:01;;;;;;;3.37;1.57;;;;;;;12.62;84.29;95441.13;5064265;28;20232;-78
2021/08/04 01:29:27;;;;;;;2.53;1.70;;;;;;;12.58;84.47;95432.81;5047872;28;20200;-78
2021/08/04 01:32:00;;;;;;;2.77;1.73;;;;;;;12.60;84.89;95441.28;5063624;28;20173;-78
2021/08/04 01:34:26;;;;;;;3.73;2.00;;;;;;;12.63;85.43;95443.59;5063974;28;20184;-78
2021/08/04 01:36:51;;;;;;;2.90;2.10;;;;;;;12.54;84.84;95439.31;5064578;28;20187;-77
2021/08/04 01:39:18;;;;;;;2.00;1.80;;;;;;;12.56;84.73;95439.19;5063798;28;20252;-78
2021/08/04 01:41:44;;;;;;;2.80;1.90;;;;;;;12.55;84.81;95433.16;5063775;28;20228;-78
2021/08/04 01:44:10;;;;;;;3.77;2.00;;;;;;;12.53;84.97;95434.28;5047798;28;20203;-78
2021/08/04 01:46:36;;;;;;;3.13;2.10;;;;;;;12.56;84.64;95433.97;5063989;28;20209;-78
2021/08/04 01:49:03;;;;;;;4.23;2.10;;;;;;;12.59;84.86;95428.41;5061684;28;20232;-77
2021/08/04 01:51:29;;;;;;;1.90;1.80;;;;;;;12.52;83.96;95438.66;5060147;28;20182;-78
2021/08/04 01:53:55;;;;;;;3.10;1.87;;;;;;;12.57;83.79;95433.81;5060700;28;20224;-77
2021/08/04 01:56:21;;;;;;;3.97;2.03;;;;;;;12.53;83.49;95429.06;5043803;28;20232;-78
2021/08/04 01:58:46;;;;;;;2.43;2.23;;;;;;;12.52;83.42;95430.03;5043876;28;20189;-78
2021/08/04 02:01:12;;;;;;;2.73;1.97;;;;;;;12.26;85.60;95423.19;5060414;28;20181;-77
2021/08/04 02:03:37;;;;;;;2.03;1.70;;;;;;;12.16;85.92;95425.13;5060291;28;20652;-77
2021/08/04 02:06:08;;;;;;;3.03;2.00;;;;;;;12.10;86.00;95424.00;5060147;28;20730;-77
2021/08/04 02:08:43;;;;;;;2.10;1.90;;;;;;;12.24;83.63;95424.31;5060362;28;20247;-77
2021/08/04 02:11:22;;;;;;;3.20;1.80;;;;;;;12.05;84.73;95426.25;5043153;28;20196;-77
2021/08/04 02:13:51;;;;;;;2.70;2.10;;;;;;;11.99;85.20;95429.47;5060516;28;20173;-77
2021/08/04 02:16:23;;;;;;;3.83;2.13;;;;;;;12.06;84.35;95425.28;5059942;28;20203;-77
2021/08/04 02:18:54;;;;;;;2.67;2.23;;;;;;;12.05;82.62;95430.63;5060067;28;20185;-77
2021/08/04 02:21:20;;;;;;;3.47;2.10;;;;;;;12.16;83.09;95423.31;5042860;28;20181;-77
2021/08/04 02:23:47;;;;;;;4.03;2.10;;;;;;;12.19;82.63;95422.19;5042764;28;20184;-77
2021/08/04 02:26:15;;;;;;;2.60;1.83;;;;;;;12.18;83.40;95416.16;5059592;28;20212;-77
2021/08/04 02:28:42;;;;;;;2.87;2.07;;;;;;;12.20;83.76;95418.63;5059931;28;20184;-76
2021/08/04 02:31:09;;;;;;;2.13;1.90;;;;;;;12.18;83.90;95420.56;5058614;28;20176;-77
2021/08/04 02:33:34;;;;;;;4.93;2.10;;;;;;;12.13;83.71;95415.03;5059076;28;20181;-77
2021/08/04 02:36:00;;;;;;;3.07;1.90;;;;;;;12.08;83.88;95415.50;5059183;28;20204;-77
2021/08/04 02:38:25;;;;;;;3.67;2.30;;;;;;;12.09;83.93;95411.94;5059719;28;20181;-77
2021/08/04 02:40:51;;;;;;;3.10;2.20;;;;;;;12.05;83.61;95408.03;5059741;28;20182;-77
2021/08/04 02:43:19;;;;;;;3.10;2.53;;;;;;;11.84;84.30;95407.66;5042500;28;20181;-78
2021/08/04 02:45:44;;;;;;;4.60;2.40;;;;;;;11.92;84.75;95410.25;5042238;28;20569;-78
2021/08/04 02:48:11;;;;;;;2.97;1.87;;;;;;;11.89;84.54;95407.97;5059107;28;20181;-77
2021/08/04 02:50:38;;;;;;;3.00;1.90;;;;;;;12.01;83.22;95406.69;5042387;28;20212;-77
2021/08/04 02:53:04;;;;;;;3.50;2.20;;;;;;;12.04;83.14;95403.81;5042160;28;20181;-77
2021/08/04 02:55:30;;;;;;;3.07;2.30;;;;;;;12.09;83.06;95406.72;5059100;28;20201;-76
2021/08/04 02:57:56;;;;;;;3.57;1.87;;;;;;;12.03;83.01;95409.16;5076888;28;20200;-77
2021/08/04 03:00:21;;;;;;;3.00;2.30;;;;;;;11.96;82.99;95401.19;5042743;28;20185;-77
2021/08/04 03:02:46;;;;;;;3.03;2.07;;;;;;;12.00;83.38;95401.66;5059226;28;20200;-77
2021/08/04 03:05:12;;;;;;;3.87;2.00;;;;;;;12.05;83.17;95400.22;5042005;28;20223;-78
2021/08/04 03:07:37;;;;;;;2.97;2.10;;;;;;;12.04;82.70;95403.81;5076927;28;20689;-77
2021/08/04 03:10:03;;;;;;;2.07;1.87;;;;;;;12.09;83.43;95403.31;5042416;28;20177;-77
2021/08/04 03:12:28;;;;;;;2.90;2.60;;;;;;;12.05;82.66;95402.00;5059231;28;20181;-77
2021/08/04 03:14:54;;;;;;;3.90;2.53;;;;;;;12.05;82.72;95413.22;5076795;28;20215;-77
2021/08/04 03:17:19;;;;;;;2.30;2.10;;;;;;;12.04;82.78;95406.41;5059537;28;20641;-78
2021/08/04 03:19:44;;;;;;;4.07;2.50;;;;;;;12.05;82.35;95402.00;5076577;28;20222;-77
2021/08/04 03:22:09;;;;;;;2.40;2.20;;;;;;;12.04;82.16;95403.81;5042035;28;20177;-77
2021/08/04 03:24:35;;;;;;;2.80;2.30;;;;;;;12.13;81.79;95399.41;5059022;28;20279;-77
2021/08/04 03:27:00;;;;;;;2.40;2.20;;;;;;;12.14;80.37;95401.84;5058642;28;20193;-77
2021/08/04 03:29:25;;;;;;;4.83;2.40;;;;;;;12.17;79.11;95404.13;5041720;28;20238;-77
2021/08/04 03:31:51;;;;;;;3.67;2.70;;;;;;;12.14;78.79;95403.66;5041694;28;20181;-78
2021/08/04 03:34:16;;;;;;;2.23;2.03;;;;;;;12.10;79.21;95403.16;5042173;28;20656;-78
2021/08/04 03:36:41;;;;;;;3.90;2.30;;;;;;;12.13;81.29;95408.03;5076538;28;20595;-77
2021/08/04 03:39:07;;;;;;;3.97;2.30;;;;;;;12.13;81.33;95402.84;5058691;28;20181;-77
2021/08/04 03:41:32;;;;;;;2.33;2.10;;;;;;;12.10;82.64;95410.97;5041666;28;20177;-77
2021/08/04 03:43:57;;;;;;;2.60;2.03;;;;;;;12.02;83.71;95403.16;5058470;28;20691;-77
2021/08/04 03:46:23;;;;;;;2.60;2.40;;;;;;;12.03;83.62;95409.97;5076102;28;20205;-77
2021/08/04 03:48:48;;;;;;;3.53;2.63;;;;;;;12.00;83.83;95399.88;5058408;28;20663;-77
2021/08/04 03:51:13;;;;;;;4.17;2.20;;;;;;;12.06;83.88;95409.66;5058310;28;20185;-77
2021/08/04 03:53:39;;;;;;;2.50;2.30;;;;;;;12.04;83.54;95406.41;5076674;28;20521;-77
2021/08/04 03:56:04;;;;;;;2.33;2.13;;;;;;;12.00;84.17;95407.69;5058327;28;20258;-77
2021/08/04 03:58:29;;;;;;;3.00;2.10;;;;;;;12.02;84.53;95402.34;5058708;28;20185;-78
2021/08/04 04:00:55;;;;;;;3.53;2.37;;;;;;;11.92;85.84;95405.06;5058524;28;20177;-77
2021/08/04 04:03:20;;;;;;;4.27;2.33;;;;;;;11.86;85.34;95406.53;5060864;28;20173;-78
2021/08/04 04:05:45;;;;;;;2.60;2.40;;;;;;;11.79;86.04;95405.50;5080988;28;20249;-78
2021/08/04 04:08:11;;;;;;;5.33;2.37;;;;;;;11.75;86.50;95404.19;5063676;28;20209;-78
2021/08/04 04:10:36;;;;;;;4.23;2.40;;;;;;;11.82;86.19;95401.78;5063759;28;20181;-78
2021/08/04 04:13:01;;;;;;;4.80;2.43;;;;;;;11.88;85.38;95408.97;5077086;28;20195;-75
2021/08/04 04:15:27;;;;;;;3.57;2.53;;;;;;;11.83;86.44;95413.81;5098158;28;20189;-75
2021/08/04 04:17:52;;;;;;;3.47;2.43;;;;;;;11.78;86.47;95403.06;5098065;28;20177;-76
2021/08/04 04:20:17;;;;;;;3.63;2.00;;;;;;;11.81;86.26;95402.75;5064083;28;20177;-76
2021/08/04 04:22:44;;;;;;;2.37;2.13;;;;;;;11.83;86.46;95403.41;5080389;28;20178;-76
2021/08/04 04:25:14;;;;;;;5.07;2.90;;;;;;;11.82;86.30;95407.78;5097921;28;20215;-76
2021/08/04 04:27:40;;;;;;;2.80;2.50;;;;;;;11.88;85.10;95406.34;5080705;28;20239;-76
2021/08/04 04:30:07;;;;;;;4.87;2.17;;;;;;;11.85;84.16;95410.09;5080527;28;20162;-76
2021/08/04 04:32:32;;;;;;;3.27;2.83;;;;;;;11.91;84.80;95411.22;5080264;28;20191;-75
2021/08/04 04:34:57;;;;;;;3.47;2.60;;;;;;;11.87;84.33;95407.34;5084728;28;20257;-78
2021/08/04 04:37:22;;;;;;;3.87;2.30;;;;;;;11.95;84.06;95414.34;5060894;28;20173;-78
2021/08/04 04:39:48;;;;;;;2.43;2.23;;;;;;;11.97;83.94;95418.41;5078940;28;20177;-78
2021/08/04 04:42:13;;;;;;;3.50;2.30;;;;;;;11.98;83.75;95419.22;5044836;28;20181;-77
2021/08/04 04:44:39;;;;;;;2.17;1.93;;;;;;;11.95;82.76;95422.16;5079170;28;20238;-76
2021/08/04 04:47:04;;;;;;;3.73;2.37;;;;;;;11.94;82.69;95412.72;5044973;28;20200;-78
2021/08/04 04:49:29;;;;;;;4.43;2.70;;;;;;;12.01;82.48;95418.91;5061259;28;20185;-78
2021/08/04 04:51:55;;;;;;;3.70;2.80;;;;;;;12.06;82.73;95417.47;5060587;28;20655;-78
2021/08/04 04:54:20;;;;;;;4.60;2.40;;;;;;;12.11;82.87;95420.41;5061149;28;20252;-78
2021/08/04 04:56:45;;;;;;;2.77;2.50;;;;;;;12.15;82.75;95426.91;5044531;28;20208;-78
2021/08/04 04:59:11;;;;;;;3.33;2.47;;;;;;;12.12;81.08;95419.44;5060846;28;20181;-76
2021/08/04 05:01:36;;;;;;;3.40;2.20;;;;;;;12.10;80.33;95429.19;5077895;28;20190;-78
2021/08/04 05:04:01;;;;;;;4.83;2.47;;;;;;;12.21;80.76;95424.66;5078135;28;20234;-78
2021/08/04 05:06:26;;;;;;;3.00;2.30;;;;;;;12.28;80.86;95418.66;5060715;28;20204;-78
2021/08/04 05:08:52;;;;;;;3.30;2.50;;;;;;;12.40;80.67;95421.75;5043338;28;20185;-78
2021/08/04 05:11:17;;;;;;;5.03;2.50;;;;;;;12.41;80.20;95425.97;5060606;28;20177;-76
2021/08/04 05:13:42;;;;;;;2.30;2.10;;;;;;;12.47;78.91;95425.34;5043511;28;20180;-78
2021/08/04 05:16:08;;;;;;;2.67;2.23;;;;;;;12.46;78.19;95431.53;5077798;28;20189;-77
2021/08/04 05:18:33;;;;;;;3.30;2.30;;;;;;;12.55;78.27;95432.34;5043973;28;20173;-78
2021/08/04 05:20:58;;;;;;;3.47;2.10;;;;;;;12.45;78.42;95437.69;5043461;28;20188;-78
2021/08/04 05:23:24;;;;;;;2.50;2.20;;;;;;;12.63;77.60;95438.38;5058279;28;20718;-77
2021/08/04 05:25:49;;;;;;;4.23;2.50;;;;;;;12.90;77.36;95436.41;5043457;28;20196;-78
2021/08/04 05:28:14;;;;;;;2.47;2.00;;;;;;;13.01;76.87;95438.66;5056167;28;20234;-78
2021/08/04 05:30:40;;;;;;;2.50;2.13;;;;;;;13.08;76.60;95437.03;5062458;28;20733;-78
2021/08/04 05:33:05;;;;;;;3.37;2.20;;;;;;;13.07;75.87;95439.78;5086971;28;20191;-76
2021/08/04 05:35:30;;;;;;;3.30;2.00;;;;;;;13.15;76.62;95443.19;5077092;28;20204;-77
2021/08/04 05:37:56;;;;;;;3.80;2.20;;;;;;;13.25;77.71;95446.47;5037702;28;20291;-77
2021/08/04 05:40:21;;;;;;;2.70;2.50;;;;;;;13.41;76.81;95434.38;5054800;28;20185;-78
2021/08/04 05:42:46;;;;;;;2.50;2.30;;;;;;;13.54;76.68;95435.47;5038221;28;20184;-77
2021/08/04 05:45:12;;;;;;;2.33;2.13;;;;;;;13.55;76.63;95437.09;5072503;28;20711;-78
2021/08/04 05:47:37;;;;;;;3.47;2.57;;;;;;;13.61;76.83;95433.00;5072672;28;20272;-78
2021/08/04 05:50:04;;;;;;;3.10;2.03;;;;;;;13.75;76.64;95429.69;5037729;28;20181;-78
2021/08/04 05:52:29;;;;;;;5.50;2.27;;;;;;;13.90;76.38;95437.59;5037355;28;20640;-78
2021/08/04 05:54:55;;;;;;;3.27;2.40;;;;;;;14.12;76.17;95434.22;5053311;28;20193;-77
2021/08/04 05:57:20;;;;;;;2.90;2.40;;;;;;;14.16;75.39;95429.47;5053972;28;20185;-77
2021/08/04 05:59:46;;;;;;;2.73;2.10;;;;;;;14.28;75.66;95427.28;5053651;28;20544;-78
2021/08/04 06:02:11;;;;;;;2.10;1.90;;;;;;;14.26;75.62;95430.06;5053230;28;20196;-76
2021/08/04 06:04:36;;;;;;;2.40;2.20;;;;;;;14.35;75.16;95426.41;5071667;28;20177;-77
2021/08/04 06:07:02;;;;;;;3.67;2.70;;;;;;;14.71;74.07;95423.25;5073620;28;20255;-77
2021/08/04 06:09:29;;;;;;;2.30;1.90;;;;;;;14.97;71.78;95428.91;5056978;28;20193;-78
2021/08/04 06:11:54;;;;;;;2.17;1.97;;;;;;;15.15;70.94;95425.13;5057196;28;20188;-77
2021/08/04 06:14:19;;;;;;;3.20;2.30;;;;;;;14.78;70.34;95426.78;5041061;28;20185;-77
2021/08/04 06:16:44;;;;;;;5.00;2.30;;;;;;;14.72;70.75;95430.91;5059962;28;20681;-77
2021/08/04 06:19:10;;;;;;;2.90;2.00;;;;;;;15.18;70.43;95435.22;5075495;28;20200;-78
2021/08/04 06:21:35;;;;;;;2.83;2.40;;;;;;;15.30;69.93;95431.19;5075561;28;20234;-76
2021/08/04 06:24:00;;;;;;;1.90;1.80;;;;;;;15.25;70.55;95436.16;5041052;28;20184;-78
2021/08/04 06:26:26;;;;;;;2.33;2.05;;;;;;;15.10;67.44;95433.50;5067861;28;20200;-77
2021/08/04 06:28:51;;;;;;;2.23;2.00;;;;;;;15.02;66.42;95439.66;5097158;28;20187;-76
2021/08/04 06:31:16;;;;;;;2.50;2.00;;;;;;;15.21;66.08;95443.56;5115528;28;20179;-78
2021/08/04 06:33:42;;;;;;;2.60;1.60;;;;;;;15.11;64.93;95444.81;5097159;28;20171;-77
2021/08/04 06:36:07;;;;;;;3.75;2.80;;;;;;;15.34;65.38;95453.38;5115605;28;20195;-78
2021/08/04 06:38:32;;;;;;;2.10;1.80;;;;;;;15.34;64.77;95450.78;5097438;28;20187;-78
2021/08/04 06:40:58;;;;;;;4.03;2.30;;;;;;;15.23;65.09;95459.06;5080207;28;20182;-76
2021/08/04 06:43:23;;;;;;;2.35;2.13;;;;;;;15.56;64.95;95457.75;5096637;28;20255;-79
2021/08/04 06:45:49;;;;;;;3.95;2.10;;;;;;;15.79;64.36;95449.00;5096855;28;20223;-78
2021/08/04 06:48:14;;;;;;;4.05;1.92;;;;;;;16.11;63.40;95455.66;5085935;28;20198;-77
2021/08/04 06:50:41;;;;;;;3.75;1.92;;;;;;;16.25;63.85;95453.97;5073012;28;20196;-76
2021/08/04 06:53:06;;;;;;;2.85;1.98;;;;;;;16.31;59.68;95459.28;5081328;28;20172;-77
2021/08/04 06:55:31;;;;;;;3.53;1.95;;;;;;;16.42;59.88;95458.00;5089143;28;20219;-76
2021/08/04 06:57:58;;;;;;;2.42;2.20;;;;;;;16.23;60.40;95456.78;5115033;28;20196;-76
2021/08/04 07:00:23;;;;;;;1.92;1.73;;;;;;;15.80;61.25;95458.47;5115287;28;20183;-76
2021/08/04 07:02:49;;;;;;;3.95;2.08;;;;;;;16.07;62.07;95465.66;5115022;28;20164;-76
2021/08/04 07:05:17;;;;;;;2.50;1.95;;;;;;;16.59;62.29;95466.44;5079821;28;20739;-76
2021/08/04 07:07:43;;;;;;;2.03;1.75;;;;;;;16.64;60.46;95470.13;5080361;28;20211;-75
2021/08/04 07:10:09;;;;;;;3.97;2.00;;;;;;;16.06;62.85;95466.66;5080199;28;20242;-76
2021/08/04 07:12:34;;;;;;;2.42;2.13;;;;;;;16.07;62.53;95473.53;5096883;28;20183;-78
2021/08/04 07:14:59;;;;;;;2.72;2.08;;;;;;;16.13;63.53;95475.41;5096612;28;20618;-74
2021/08/04 07:17:25;;;;;;;2.15;1.88;;;;;;;16.12;63.42;95476.41;5097117;28;20168;-77
2021/08/04 07:19:50;;;;;;;2.55;2.20;;;;;;;16.13;63.83;95478.03;5097606;28;20168;-77
2021/08/04 07:22:15;;;;;;;2.22;2.00;;;;;;;15.95;65.06;95469.75;5096705;28;20541;-77
2021/08/04 07:24:41;;;;;;;3.75;2.40;;;;;;;15.98;63.99;95469.38;5097085;28;20171;-76
2021/08/04 07:27:06;;;;;;;2.35;2.10;;;;;;;16.13;62.02;95462.31;5094964;28;20250;-77
2021/08/04 07:29:32;;;;;;;3.58;2.10;;;;;;;16.11;63.71;95466.94;5076710;28;20640;-78
2021/08/04 07:31:57;;;;;;;2.22;2.03;;;;;;;16.64;62.10;95474.56;5076088;28;20180;-77
2021/08/04 07:34:24;;;;;;;2.17;1.92;;;;;;;16.43;60.81;95467.47;5094735;28;20173;-77
2021/08/04 07:36:50;;;;;;;2.38;2.17;;;;;;;16.35;62.45;95467.63;5076439;28;20234;-75
2021/08/04 07:39:15;;;;;;;2.60;2.30;;;;;;;16.06;63.00;95471.91;5058983;28;20181;-77
2021/08/04 07:41:41;;;;;;;2.95;1.83;;;;;;;16.41;63.26;95480.78;5059805;28;20173;-77
2021/08/04 07:44:06;;;;;;;3.63;2.38;;;;;;;16.27;62.92;95483.44;5059786;28;20221;-76
2021/08/04 07:46:32;;;;;;;2.40;1.98;;;;;;;15.92;63.77;95480.59;5094037;28;20208;-78
2021/08/04 07:48:57;;;;;;;2.40;2.03;;;;;;;15.63;64.38;95478.78;5095220;28;20195;-75
2021/08/04 07:51:22;;;;;;;2.20;1.90;;;;;;;15.86;65.96;95478.69;5081949;28;20180;-77
2021/08/04 07:53:48;;;;;;;2.40;2.00;;;;;;;15.82;66.99;95474.84;5106101;28;20169;-77
2021/08/04 07:56:13;;;;;;;2.42;2.22;;;;;;;15.84;65.74;95463.19;5074323;28;20208;-77
2021/08/04 07:58:39;;;;;;;2.17;1.80;;;;;;;16.10;65.32;95467.94;5092612;28;20540;-75
2021/08/04 08:01:04;;;;;;;2.42;2.08;;;;;;;16.51;63.51;95469.16;5073863;28;20187;-77
2021/08/04 08:03:31;;;;;;;3.67;2.50;;;;;;;16.55;63.63;95458.16;5091868;28;20272;-76
2021/08/04 08:05:56;;;;;;;3.85;2.10;;;;;;;16.89;62.47;95454.88;5085035;28;20204;-76
2021/08/04 08:08:21;;;;;;;2.70;2.13;;;;;;;16.79;61.04;95445.69;5071230;28;20239;-76
2021/08/04 08:10:49;;;;;;;2.55;2.00;;;;;;;16.90;61.58;95443.38;5071432;28;20603;-77
2021/08/04 08:13:15;;;;;;;2.42;2.10;;;;;;;17.48;61.24;95458.91;5053546;28;20246;-77
2021/08/04 08:15:40;;;;;;;3.97;2.13;;;;;;;17.65;60.95;95465.50;5036492;28;20284;-77
2021/08/04 08:18:09;;;;;;;2.92;2.30;;;;;;;17.74;61.02;95471.44;5037043;28;20177;-77
2021/08/04 08:20:36;;;;;;;2.10;1.95;;;;;;;17.07;61.08;95472.78;5053380;28;20173;-77
2021/08/04 08:23:01;;;;;;;1.92;1.67;;;;;;;17.14;61.86;95478.88;5070400;28;20197;-75
2021/08/04 08:25:27;;;;;;;3.38;2.40;;;;;;;17.38;60.53;95468.94;5047998;28;20646;-77
2021/08/04 08:27:52;;;;;;;3.50;2.13;;;;;;;16.89;62.58;95464.53;5104537;28;20262;-77
2021/08/04 08:30:17;;;;;;;2.30;2.10;;;;;;;16.75;63.51;95473.28;5072882;28;20196;-77
2021/08/04 08:32:48;;;;;;;2.22;2.03;;;;;;;16.76;62.75;95480.94;5091936;28;20173;-77
2021/08/04 08:35:13;;;;;;;2.15;2.00;;;;;;;16.84;62.30;95478.22;5075902;28;20266;-77
2021/08/04 08:37:39;;;;;;;2.78;2.20;;;;;;;16.70;61.59;95473.84;5058339;28;20169;-77
2021/08/04 08:40:04;;;;;;;2.80;2.10;;;;;;;16.46;60.72;95467.13;5093231;28;20173;-76
2021/08/04 08:42:31;;;;;;;1.90;1.80;;;;;;;17.15;61.38;95475.25;5075298;28;20180;-78
2021/08/04 08:44:58;;;;;;;2.15;1.95;;;;;;;17.03;59.01;95474.13;5093847;28;20668;-78
2021/08/04 08:47:23;;;;;;;2.10;1.90;;;;;;;17.41;58.21;95474.66;5075492;28;20273;-78
2021/08/04 08:49:49;;;;;;;2.80;2.25;;;;;;;17.16;60.39;95476.88;5059103;28;20245;-78
2021/08/04 08:52:14;;;;;;;1.85;1.70;;;;;;;17.63;60.08;95469.31;5059087;28;20183;-79
2021/08/04 08:54:39;;;;;;;2.30;2.10;;;;;;;16.48;62.61;95472.97;5059511;28;20184;-79
2021/08/04 08:57:05;;;;;;;3.35;1.95;;;;;;;16.64;62.02;95458.84;5093857;28;20620;-78
2021/08/04 08:59:30;;;;;;;2.88;2.17;;;;;;;16.02;64.95;95452.31;5059009;28;20209;-79
2021/08/04 09:01:55;;;;;;;2.60;2.05;;;;;;;16.11;64.71;95450.41;5058721;28;20654;-77
2021/08/04 09:04:21;;;;;;;2.45;2.25;;;;;;;16.37;63.48;95452.50;5075399;28;20555;-77
2021/08/04 09:07:01;;;;;;;3.53;2.13;;;;;;;16.78;64.37;95455.34;5093733;28;20204;-78
2021/08/04 09:09:32;;;;;;;2.40;2.20;;;;;;;17.27;62.57;95449.31;5076005;28;20803;-78
2021/08/04 09:12:06;;;;;;;2.85;2.28;;;;;;;17.13;62.30;95453.63;5093400;28;20536;-79
2021/08/04 09:14:33;;;;;;;2.47;2.17;;;;;;;17.12;62.29;95446.75;5096704;28;20234;-79
2021/08/04 09:17:05;;;;;;;2.55;2.22;;;;;;;17.05;63.79;95443.28;5078635;28;20172;-77
2021/08/04 09:19:32;;;;;;;4.63;2.53;;;;;;;16.72;63.58;95444.81;5077247;28;20257;-78
2021/08/04 09:22:16;;;;;;;1.80;1.70;;;;;;;17.21;62.87;95440.38;5075715;28;20191;-79
2021/08/04 09:25:03;;;;;;;2.78;2.22;;;;;;;17.83;59.79;95434.31;5077560;28;20172;-76
2021/08/04 09:27:45;;;;;;;2.92;2.20;;;;;;;17.84;58.99;95427.22;5055561;28;20257;-78
2021/08/04 09:30:19;;;;;;;3.55;2.05;;;;;;;18.14;58.06;95433.03;5075225;28;20549;-79
2021/08/04 09:32:44;;;;;;;2.58;2.38;;;;;;;17.82;58.40;95431.88;5057621;28;20173;-79
2021/08/04 09:35:12;;;;;;;3.25;2.05;;;;;;;17.38;60.15;95435.63;5058082;28;20679;-79
2021/08/04 09:37:37;;;;;;;3.20;1.98;;;;;;;18.16;58.11;95423.13;5039709;28;20169;-78
2021/08/04 09:40:04;;;;;;;2.22;2.03;;;;;;;17.94;57.24;95419.81;5038277;28;20547;-79
2021/08/04 09:42:52;;;;;;;2.28;2.08;;;;;;;18.63;56.94;95424.03;5042294;28;20177;-79
2021/08/04 09:45:25;;;;;;;1.83;1.67;;;;;;;19.01;56.09;95423.50;5079405;28;20224;-79
2021/08/04 09:48:02;;;;;;;2.33;2.13;;;;;;;19.22;55.55;95418.81;5082956;28;20551;-78
2021/08/04 09:50:43;;;;;;;2.78;2.10;;;;;;;19.31;53.86;95422.03;5101154;28;20168;-79
2021/08/04 09:53:08;;;;;;;2.13;1.75;;;;;;;19.30;53.19;95411.72;5065681;28;20192;-79
2021/08/04 09:55:33;;;;;;;2.10;1.80;;;;;;;19.24;54.29;95415.97;5065490;28;20602;-79
2021/08/04 09:57:59;;;;;;;3.28;1.80;;;;;;;19.11;55.86;95419.44;5063931;28;20627;-79
2021/08/04 10:00:24;;;;;;;2.03;1.85;;;;;;;18.86;54.96;95413.97;5080577;28;20180;-78
2021/08/04 10:02:50;;;;;;;3.08;2.00;;;;;;;19.12;54.66;95409.72;5098154;28;20200;-79
2021/08/04 10:05:17;;;;;;;3.47;2.25;;;;;;;18.57;55.65;95411.69;5098055;28;20229;-79
2021/08/04 10:08:01;;;;;;;2.75;2.10;;;;;;;18.25;56.96;95413.25;5081205;28;20208;-79
2021/08/04 10:10:28;;;;;;;2.65;1.75;;;;;;;18.59;55.79;95409.69;5078429;28;20271;-76
2021/08/04 10:12:54;;;;;;;1.80;1.67;;;;;;;17.97;57.72;95413.34;5096157;28;20204;-78
2021/08/04 10:15:20;;;;;;;2.83;2.15;;;;;;;18.06;56.45;95401.66;5061314;28;20234;-76
2021/08/04 10:17:45;;;;;;;2.22;2.03;;;;;;;17.55;57.69;95402.03;5077760;28;20168;-77
2021/08/04 10:20:11;;;;;;;4.05;1.80;;;;;;;17.76;57.79;95401.16;5095600;28;20169;-76
2021/08/04 10:22:37;;;;;;;2.50;2.08;;;;;;;18.26;57.07;95399.91;5060864;28;20676;-76
2021/08/04 10:25:03;;;;;;;2.50;1.98;;;;;;;18.46;57.95;95391.22;5095352;28;20261;-77
2021/08/04 10:27:28;;;;;;;3.17;2.10;;;;;;;18.78;56.43;95393.13;5060204;28;20294;-77
2021/08/04 10:29:54;;;;;;;3.55;2.20;;;;;;;18.40;55.60;95388.41;5077581;28;20632;-76
2021/08/04 10:32:19;;;;;;;2.78;1.83;;;;;;;18.13;56.70;95388.56;5077174;28;20180;-76
2021/08/04 10:34:45;;;;;;;2.63;2.25;;;;;;;17.89;57.72;95380.19;5077336;28;20199;-77
2021/08/04 10:37:11;;;;;;;2.08;1.90;;;;;;;18.00;58.32;95382.22;5060765;28;20169;-77
2021/08/04 10:39:36;;;;;;;2.55;2.00;;;;;;;17.49;58.24;95373.91;5060344;28;20207;-76
2021/08/04 10:42:07;;;;;;;1.75;1.65;;;;;;;17.82;57.24;95374.09;5077195;28;20175;-77
2021/08/04 10:44:33;;;;;;;3.05;1.80;;;;;;;18.01;57.74;95372.53;5077164;28;20176;-77
2021/08/04 10:46:59;;;;;;;2.88;1.98;;;;;;;18.08;56.86;95378.63;5060278;28;20273;-77
2021/08/04 10:49:27;;;;;;;4.82;1.83;;;;;;;18.25;55.90;95374.63;5077057;28;20165;-76
2021/08/04 10:51:56;;;;;;;2.53;1.67;;;;;;;18.48;55.96;95371.63;5075647;28;20529;-77
2021/08/04 10:54:25;;;;;;;2.30;2.10;;;;;;;18.35;57.32;95374.22;5077218;28;20176;-77
2021/08/04 10:56:53;;;;;;;2.63;2.10;;;;;;;18.85;54.76;95374.72;5076614;28;20578;-76
2021/08/04 10:59:31;;;;;;;2.60;1.80;;;;;;;18.95;54.28;95375.91;5095090;28;20169;-77
2021/08/04 11:02:03;;;;;;;2.33;2.13;;;;;;;19.03;56.21;95376.72;5078351;28;20226;-77
2021/08/04 11:04:28;;;;;;;1.90;1.70;;;;;;;19.13;54.86;95377.94;5094650;28;20179;-77
2021/08/04 11:07:09;;;;;;;2.08;1.88;;;;;;;19.58;52.77;95369.34;5094770;28;20204;-77
2021/08/04 11:09:35;;;;;;;2.53;1.92;;;;;;;19.80;52.95;95362.81;5094739;28;20175;-77
2021/08/04 11:12:02;;;;;;;2.72;2.13;;;;;;;19.50;54.84;95365.09;5079639;28;20622;-77
2021/08/04 11:14:50;;;;;;;2.15;1.92;;;;;;;19.96;51.44;95364.94;5097012;28;20540;-79
2021/08/04 11:17:20;;;;;;;1.92;1.77;;;;;;;19.68;53.51;95369.72;5096973;28;20175;-76
2021/08/04 11:20:08;;;;;;;2.67;1.75;;;;;;;19.89;51.87;95366.81;5059473;28;20189;-77
2021/08/04 11:22:39;;;;;;;3.72;2.00;;;;;;;20.14;51.71;95361.59;5073282;28;20181;-77
2021/08/04 11:25:31;;;;;;;2.13;1.92;;;;;;;19.53;53.33;95357.59;5079223;28;20206;-77
2021/08/04 11:27:56;;;;;;;1.85;1.70;;;;;;;19.77;52.01;95348.19;5097419;28;20659;-77
2021/08/04 11:30:55;;;;;;;1.90;1.73;;;;;;;20.12;51.85;95357.56;5098472;28;20309;-75
2021/08/04 11:33:27;;;;;;;2.03;1.83;;;;;;;20.11;52.18;95355.94;5114030;28;20192;-76